sensor_id;sensor_type;location;lat;lon;timestamp;P1;durP1;ratioP1;P2;durP2;ratioP2
51459;SDS011;37534;39.772;2.718;2023-02-20T00:01:50;45.47;;;31.10;;
51459;SDS011;37534;39.772;2.718;2023-02-20T00:04:17;43.53;;;37.28;;
51459;SDS011;37534;39.772;2.718;2023-02-20T00:06:43;31.42;;;26.60;;
51459;SDS011;37534;39.772;2.718;2023-02-20T00:09:09;32.83;;;26.05;;
51459;SDS011;37534;39.772;2.718;2023-02-20T00:11:35;28.02;;;25.10;;
51459;SDS011;37534;39.772;2.718;2023-02-20T00:14:00;35.50;;;25.95;;
51459;SDS011;37534;39.772;2.718;2023-02-20T00:16:27;27.02;;;23.50;;
51459;SDS011;37534;39.772;2.718;2023-02-20T00:18:53;34.33;;;25.30;;
51459;SDS011;37534;39.772;2.718;2023-02-20T00:21:18;31.25;;;23.50;;
51459;SDS011;37534;39.772;2.718;2023-02-20T00:23:44;26.75;;;23.35;;
51459;SDS011;37534;39.772;2.718;2023-02-20T00:26:10;25.95;;;21.13;;
51459;SDS011;37534;39.772;2.718;2023-02-20T00:28:37;28.30;;;23.00;;
51459;SDS011;37534;39.772;2.718;2023-02-20T00:31:04;23.08;;;20.77;;
51459;SDS011;37534;39.772;2.718;2023-02-20T00:33:31;24.08;;;20.08;;
51459;SDS011;37534;39.772;2.718;2023-02-20T00:35:56;25.42;;;19.73;;
51459;SDS011;37534;39.772;2.718;2023-02-20T00:38:22;22.83;;;17.38;;
51459;SDS011;37534;39.772;2.718;2023-02-20T00:40:48;15.82;;;14.23;;
51459;SDS011;37534;39.772;2.718;2023-02-20T00:43:13;17.40;;;14.98;;
51459;SDS011;37534;39.772;2.718;2023-02-20T00:45:39;21.55;;;14.68;;
51459;SDS011;37534;39.772;2.718;2023-02-20T00:48:05;19.10;;;17.05;;
51459;SDS011;37534;39.772;2.718;2023-02-20T00:50:30;28.88;;;19.58;;
51459;SDS011;37534;39.772;2.718;2023-02-20T00:52:56;17.10;;;14.73;;
51459;SDS011;37534;39.772;2.718;2023-02-20T00:55:22;17.55;;;13.85;;
51459;SDS011;37534;39.772;2.718;2023-02-20T00:57:47;17.85;;;13.15;;
51459;SDS011;37534;39.772;2.718;2023-02-20T01:00:21;15.48;;;13.05;;
51459;SDS011;37534;39.772;2.718;2023-02-20T01:02:48;14.05;;;12.23;;
51459;SDS011;37534;39.772;2.718;2023-02-20T01:05:14;12.75;;;10.50;;
51459;SDS011;37534;39.772;2.718;2023-02-20T01:07:39;13.95;;;12.48;;
51459;SDS011;37534;39.772;2.718;2023-02-20T01:10:05;17.55;;;15.32;;
51459;SDS011;37534;39.772;2.718;2023-02-20T01:12:32;15.15;;;13.75;;
51459;SDS011;37534;39.772;2.718;2023-02-20T01:14:57;22.00;;;16.42;;
51459;SDS011;37534;39.772;2.718;2023-02-20T01:17:23;18.48;;;13.30;;
51459;SDS011;37534;39.772;2.718;2023-02-20T01:19:48;25.35;;;22.67;;
51459;SDS011;37534;39.772;2.718;2023-02-20T01:22:14;20.83;;;15.68;;
51459;SDS011;37534;39.772;2.718;2023-02-20T01:24:39;19.83;;;13.85;;
51459;SDS011;37534;39.772;2.718;2023-02-20T01:27:07;18.00;;;13.80;;
51459;SDS011;37534;39.772;2.718;2023-02-20T01:29:33;17.15;;;12.50;;
51459;SDS011;37534;39.772;2.718;2023-02-20T01:31:59;18.83;;;14.50;;
51459;SDS011;37534;39.772;2.718;2023-02-20T01:34:24;14.38;;;13.02;;
51459;SDS011;37534;39.772;2.718;2023-02-20T01:36:51;20.80;;;14.43;;
51459;SDS011;37534;39.772;2.718;2023-02-20T01:39:19;27.73;;;20.85;;
51459;SDS011;37534;39.772;2.718;2023-02-20T01:41:48;17.17;;;15.50;;
51459;SDS011;37534;39.772;2.718;2023-02-20T01:44:20;12.80;;;11.18;;
51459;SDS011;37534;39.772;2.718;2023-02-20T01:46:50;12.13;;;8.75;;
51459;SDS011;37534;39.772;2.718;2023-02-20T01:49:51;13.75;;;11.02;;
51459;SDS011;37534;39.772;2.718;2023-02-20T01:55:15;15.82;;;12.60;;
51459;SDS011;37534;39.772;2.718;2023-02-20T01:57:54;12.27;;;11.07;;
51459;SDS011;37534;39.772;2.718;2023-02-20T02:00:25;13.35;;;10.68;;
51459;SDS011;37534;39.772;2.718;2023-02-20T02:03:05;12.88;;;9.68;;
51459;SDS011;37534;39.772;2.718;2023-02-20T02:05:34;11.70;;;10.20;;
51459;SDS011;37534;39.772;2.718;2023-02-20T02:08:03;40.42;;;26.92;;
51459;SDS011;37534;39.772;2.718;2023-02-20T02:10:37;75.65;;;54.53;;
51459;SDS011;37534;39.772;2.718;2023-02-20T02:13:14;60.05;;;42.97;;
51459;SDS011;37534;39.772;2.718;2023-02-20T02:15:39;28.85;;;21.65;;
51459;SDS011;37534;39.772;2.718;2023-02-20T02:18:13;12.60;;;11.35;;
51459;SDS011;37534;39.772;2.718;2023-02-20T02:21:11;10.73;;;9.00;;
51459;SDS011;37534;39.772;2.718;2023-02-20T02:24:00;7.72;;;6.97;;
51459;SDS011;37534;39.772;2.718;2023-02-20T02:33:05;6.93;;;6.32;;
51459;SDS011;37534;39.772;2.718;2023-02-20T02:38:46;7.82;;;6.38;;
51459;SDS011;37534;39.772;2.718;2023-02-20T02:44:31;21.67;;;14.90;;
51459;SDS011;37534;39.772;2.718;2023-02-20T02:47:36;12.02;;;9.98;;
51459;SDS011;37534;39.772;2.718;2023-02-20T02:50:07;8.18;;;7.25;;
51459;SDS011;37534;39.772;2.718;2023-02-20T02:52:39;6.95;;;6.25;;
51459;SDS011;37534;39.772;2.718;2023-02-20T02:55:15;6.60;;;5.32;;
51459;SDS011;37534;39.772;2.718;2023-02-20T02:57:44;8.20;;;6.47;;
51459;SDS011;37534;39.772;2.718;2023-02-20T03:00:56;8.88;;;6.53;;
51459;SDS011;37534;39.772;2.718;2023-02-20T03:05:54;6.07;;;5.05;;
51459;SDS011;37534;39.772;2.718;2023-02-20T03:08:25;5.00;;;4.38;;
51459;SDS011;37534;39.772;2.718;2023-02-20T03:13:55;44.53;;;37.25;;
51459;SDS011;37534;39.772;2.718;2023-02-20T03:16:52;14.02;;;9.02;;
51459;SDS011;37534;39.772;2.718;2023-02-20T03:19:21;13.00;;;8.88;;
51459;SDS011;37534;39.772;2.718;2023-02-20T03:21:51;12.48;;;7.25;;
51459;SDS011;37534;39.772;2.718;2023-02-20T03:24:20;7.50;;;6.75;;
51459;SDS011;37534;39.772;2.718;2023-02-20T03:26:48;10.35;;;6.45;;
51459;SDS011;37534;39.772;2.718;2023-02-20T03:29:35;10.32;;;6.03;;
51459;SDS011;37534;39.772;2.718;2023-02-20T03:32:04;10.00;;;6.78;;
51459;SDS011;37534;39.772;2.718;2023-02-20T03:34:52;7.43;;;5.85;;
51459;SDS011;37534;39.772;2.718;2023-02-20T03:37:39;7.20;;;6.50;;
51459;SDS011;37534;39.772;2.718;2023-02-20T03:40:27;7.60;;;4.82;;
51459;SDS011;37534;39.772;2.718;2023-02-20T03:43:14;10.95;;;7.32;;
51459;SDS011;37534;39.772;2.718;2023-02-20T03:45:50;15.48;;;6.95;;
51459;SDS011;37534;39.772;2.718;2023-02-20T03:48:27;17.27;;;8.23;;
51459;SDS011;37534;39.772;2.718;2023-02-20T03:50:58;7.30;;;6.60;;
51459;SDS011;37534;39.772;2.718;2023-02-20T03:53:43;15.45;;;13.55;;
51459;SDS011;37534;39.772;2.718;2023-02-20T03:56:11;30.30;;;23.65;;
51459;SDS011;37534;39.772;2.718;2023-02-20T03:58:44;17.42;;;12.65;;
51459;SDS011;37534;39.772;2.718;2023-02-20T04:01:14;12.02;;;8.77;;
51459;SDS011;37534;39.772;2.718;2023-02-20T04:03:43;7.32;;;6.57;;
51459;SDS011;37534;39.772;2.718;2023-02-20T04:06:11;7.65;;;6.35;;
51459;SDS011;37534;39.772;2.718;2023-02-20T04:09:01;8.48;;;7.07;;
51459;SDS011;37534;39.772;2.718;2023-02-20T04:11:35;8.43;;;6.30;;
51459;SDS011;37534;39.772;2.718;2023-02-20T04:14:05;10.32;;;7.35;;
51459;SDS011;37534;39.772;2.718;2023-02-20T04:16:40;6.85;;;6.13;;
51459;SDS011;37534;39.772;2.718;2023-02-20T04:19:10;6.57;;;5.95;;
51459;SDS011;37534;39.772;2.718;2023-02-20T04:21:44;5.45;;;4.95;;
51459;SDS011;37534;39.772;2.718;2023-02-20T04:24:17;6.93;;;5.20;;
51459;SDS011;37534;39.772;2.718;2023-02-20T04:26:47;5.40;;;4.88;;
51459;SDS011;37534;39.772;2.718;2023-02-20T04:29:13;8.52;;;6.38;;
51459;SDS011;37534;39.772;2.718;2023-02-20T04:31:39;10.25;;;8.35;;
51459;SDS011;37534;39.772;2.718;2023-02-20T04:34:05;13.40;;;8.32;;
51459;SDS011;37534;39.772;2.718;2023-02-20T04:36:30;8.85;;;7.85;;
51459;SDS011;37534;39.772;2.718;2023-02-20T04:38:56;6.93;;;6.40;;
51459;SDS011;37534;39.772;2.718;2023-02-20T04:41:21;9.48;;;6.18;;
51459;SDS011;37534;39.772;2.718;2023-02-20T04:43:47;7.90;;;6.93;;
51459;SDS011;37534;39.772;2.718;2023-02-20T04:46:14;6.95;;;6.30;;
51459;SDS011;37534;39.772;2.718;2023-02-20T04:48:40;7.18;;;6.00;;
51459;SDS011;37534;39.772;2.718;2023-02-20T04:51:06;9.30;;;6.35;;
51459;SDS011;37534;39.772;2.718;2023-02-20T04:53:31;5.68;;;5.13;;
51459;SDS011;37534;39.772;2.718;2023-02-20T04:55:57;5.32;;;4.93;;
51459;SDS011;37534;39.772;2.718;2023-02-20T04:58:22;5.30;;;4.80;;
51459;SDS011;37534;39.772;2.718;2023-02-20T05:00:48;5.90;;;5.22;;
51459;SDS011;37534;39.772;2.718;2023-02-20T05:03:14;28.08;;;15.50;;
51459;SDS011;37534;39.772;2.718;2023-02-20T05:05:40;19.73;;;13.43;;
51459;SDS011;37534;39.772;2.718;2023-02-20T05:08:06;16.20;;;11.20;;
51459;SDS011;37534;39.772;2.718;2023-02-20T05:10:33;8.68;;;7.72;;
51459;SDS011;37534;39.772;2.718;2023-02-20T05:12:59;8.35;;;6.85;;
51459;SDS011;37534;39.772;2.718;2023-02-20T05:15:26;7.57;;;5.60;;
51459;SDS011;37534;39.772;2.718;2023-02-20T05:17:53;6.53;;;5.90;;
51459;SDS011;37534;39.772;2.718;2023-02-20T05:20:19;5.38;;;4.88;;
51459;SDS011;37534;39.772;2.718;2023-02-20T05:22:45;8.43;;;5.65;;
51459;SDS011;37534;39.772;2.718;2023-02-20T05:25:12;6.70;;;5.68;;
51459;SDS011;37534;39.772;2.718;2023-02-20T05:27:39;6.95;;;5.85;;
51459;SDS011;37534;39.772;2.718;2023-02-20T05:30:05;6.10;;;5.50;;
51459;SDS011;37534;39.772;2.718;2023-02-20T05:32:31;5.35;;;4.93;;
51459;SDS011;37534;39.772;2.718;2023-02-20T05:34:57;6.53;;;5.70;;
51459;SDS011;37534;39.772;2.718;2023-02-20T05:37:23;6.97;;;5.90;;
51459;SDS011;37534;39.772;2.718;2023-02-20T05:39:51;8.57;;;7.78;;
51459;SDS011;37534;39.772;2.718;2023-02-20T05:42:16;25.45;;;22.65;;
51459;SDS011;37534;39.772;2.718;2023-02-20T05:44:43;32.15;;;28.83;;
51459;SDS011;37534;39.772;2.718;2023-02-20T05:47:09;25.10;;;21.23;;
51459;SDS011;37534;39.772;2.718;2023-02-20T05:49:35;14.27;;;12.77;;
51459;SDS011;37534;39.772;2.718;2023-02-20T05:52:01;15.52;;;11.90;;
51459;SDS011;37534;39.772;2.718;2023-02-20T05:54:34;16.50;;;12.50;;
51459;SDS011;37534;39.772;2.718;2023-02-20T05:57:00;13.40;;;11.43;;
51459;SDS011;37534;39.772;2.718;2023-02-20T05:59:25;12.23;;;9.27;;
51459;SDS011;37534;39.772;2.718;2023-02-20T06:01:55;13.23;;;10.20;;
51459;SDS011;37534;39.772;2.718;2023-02-20T06:04:21;10.75;;;8.18;;
51459;SDS011;37534;39.772;2.718;2023-02-20T06:06:47;10.00;;;8.43;;
51459;SDS011;37534;39.772;2.718;2023-02-20T06:09:12;9.25;;;6.47;;
51459;SDS011;37534;39.772;2.718;2023-02-20T06:11:46;8.65;;;6.53;;
51459;SDS011;37534;39.772;2.718;2023-02-20T06:14:17;7.97;;;6.85;;
51459;SDS011;37534;39.772;2.718;2023-02-20T06:16:44;7.70;;;6.63;;
51459;SDS011;37534;39.772;2.718;2023-02-20T06:19:11;11.35;;;7.18;;
51459;SDS011;37534;39.772;2.718;2023-02-20T06:21:43;15.75;;;10.45;;
51459;SDS011;37534;39.772;2.718;2023-02-20T06:24:10;10.43;;;9.18;;
51459;SDS011;37534;39.772;2.718;2023-02-20T06:26:38;11.13;;;9.27;;
51459;SDS011;37534;39.772;2.718;2023-02-20T06:29:04;10.23;;;8.68;;
51459;SDS011;37534;39.772;2.718;2023-02-20T06:31:30;10.98;;;9.90;;
51459;SDS011;37534;39.772;2.718;2023-02-20T06:33:55;9.65;;;8.75;;
51459;SDS011;37534;39.772;2.718;2023-02-20T06:36:26;14.70;;;9.60;;
51459;SDS011;37534;39.772;2.718;2023-02-20T06:38:53;14.25;;;9.20;;
51459;SDS011;37534;39.772;2.718;2023-02-20T06:41:19;12.50;;;9.02;;
51459;SDS011;37534;39.772;2.718;2023-02-20T06:43:45;13.45;;;9.93;;
51459;SDS011;37534;39.772;2.718;2023-02-20T06:46:11;27.60;;;12.50;;
51459;SDS011;37534;39.772;2.718;2023-02-20T06:48:44;17.98;;;11.77;;
51459;SDS011;37534;39.772;2.718;2023-02-20T06:51:11;13.63;;;10.48;;
51459;SDS011;37534;39.772;2.718;2023-02-20T06:53:37;9.88;;;8.90;;
51459;SDS011;37534;39.772;2.718;2023-02-20T06:56:07;11.40;;;9.90;;
51459;SDS011;37534;39.772;2.718;2023-02-20T06:58:34;9.85;;;8.82;;
51459;SDS011;37534;39.772;2.718;2023-02-20T07:01:00;11.15;;;8.07;;
51459;SDS011;37534;39.772;2.718;2023-02-20T07:03:26;8.05;;;5.85;;
51459;SDS011;37534;39.772;2.718;2023-02-20T07:05:52;5.93;;;5.30;;
51459;SDS011;37534;39.772;2.718;2023-02-20T07:08:17;10.77;;;5.25;;
51459;SDS011;37534;39.772;2.718;2023-02-20T07:10:43;24.75;;;21.30;;
51459;SDS011;37534;39.772;2.718;2023-02-20T07:13:08;19.98;;;15.40;;
51459;SDS011;37534;39.772;2.718;2023-02-20T07:15:34;24.48;;;14.80;;
51459;SDS011;37534;39.772;2.718;2023-02-20T07:18:00;32.67;;;16.77;;
51459;SDS011;37534;39.772;2.718;2023-02-20T07:20:25;23.10;;;10.75;;
51459;SDS011;37534;39.772;2.718;2023-02-20T07:22:51;15.18;;;7.00;;
51459;SDS011;37534;39.772;2.718;2023-02-20T07:25:18;11.95;;;7.63;;
51459;SDS011;37534;39.772;2.718;2023-02-20T07:27:44;12.60;;;7.80;;
51459;SDS011;37534;39.772;2.718;2023-02-20T07:30:10;9.13;;;8.38;;
51459;SDS011;37534;39.772;2.718;2023-02-20T07:32:36;16.95;;;10.65;;
51459;SDS011;37534;39.772;2.718;2023-02-20T07:35:02;11.07;;;9.32;;
51459;SDS011;37534;39.772;2.718;2023-02-20T07:37:28;61.40;;;14.15;;
51459;SDS011;37534;39.772;2.718;2023-02-20T07:39:53;35.33;;;11.45;;
51459;SDS011;37534;39.772;2.718;2023-02-20T07:42:19;19.75;;;9.05;;
51459;SDS011;37534;39.772;2.718;2023-02-20T07:44:45;20.05;;;9.93;;
51459;SDS011;37534;39.772;2.718;2023-02-20T07:47:12;37.63;;;13.82;;
51459;SDS011;37534;39.772;2.718;2023-02-20T07:49:38;38.33;;;15.23;;
51459;SDS011;37534;39.772;2.718;2023-02-20T07:52:04;19.83;;;12.40;;
51459;SDS011;37534;39.772;2.718;2023-02-20T07:54:30;15.88;;;12.75;;
51459;SDS011;37534;39.772;2.718;2023-02-20T07:56:55;19.48;;;14.88;;
51459;SDS011;37534;39.772;2.718;2023-02-20T07:59:21;27.55;;;13.25;;
51459;SDS011;37534;39.772;2.718;2023-02-20T08:01:47;25.65;;;13.35;;
51459;SDS011;37534;39.772;2.718;2023-02-20T08:04:13;23.95;;;11.90;;
51459;SDS011;37534;39.772;2.718;2023-02-20T08:06:38;17.92;;;10.80;;
51459;SDS011;37534;39.772;2.718;2023-02-20T08:09:04;14.30;;;8.68;;
51459;SDS011;37534;39.772;2.718;2023-02-20T08:11:33;35.20;;;10.18;;
51459;SDS011;37534;39.772;2.718;2023-02-20T08:14:03;15.52;;;11.23;;
51459;SDS011;37534;39.772;2.718;2023-02-20T08:16:35;14.70;;;11.45;;
51459;SDS011;37534;39.772;2.718;2023-02-20T08:19:01;14.20;;;11.27;;
51459;SDS011;37534;39.772;2.718;2023-02-20T08:21:36;20.15;;;12.48;;
51459;SDS011;37534;39.772;2.718;2023-02-20T08:24:02;20.25;;;12.80;;
51459;SDS011;37534;39.772;2.718;2023-02-20T08:26:41;27.15;;;13.55;;
51459;SDS011;37534;39.772;2.718;2023-02-20T08:29:08;26.33;;;16.88;;
51459;SDS011;37534;39.772;2.718;2023-02-20T08:31:36;21.58;;;13.43;;
51459;SDS011;37534;39.772;2.718;2023-02-20T08:34:01;13.82;;;11.98;;
51459;SDS011;37534;39.772;2.718;2023-02-20T08:36:27;16.15;;;11.65;;
51459;SDS011;37534;39.772;2.718;2023-02-20T08:38:53;33.55;;;15.88;;
51459;SDS011;37534;39.772;2.718;2023-02-20T08:41:19;28.33;;;15.60;;
51459;SDS011;37534;39.772;2.718;2023-02-20T08:43:45;39.38;;;23.88;;
51459;SDS011;37534;39.772;2.718;2023-02-20T08:46:12;33.05;;;28.25;;
51459;SDS011;37534;39.772;2.718;2023-02-20T08:48:39;25.95;;;22.88;;
51459;SDS011;37534;39.772;2.718;2023-02-20T08:51:05;28.23;;;24.35;;
51459;SDS011;37534;39.772;2.718;2023-02-20T08:53:32;24.20;;;20.58;;
51459;SDS011;37534;39.772;2.718;2023-02-20T08:55:58;24.38;;;20.35;;
51459;SDS011;37534;39.772;2.718;2023-02-20T08:58:24;31.55;;;26.60;;
51459;SDS011;37534;39.772;2.718;2023-02-20T09:00:50;36.47;;;28.05;;
51459;SDS011;37534;39.772;2.718;2023-02-20T09:03:16;46.67;;;32.78;;
51459;SDS011;37534;39.772;2.718;2023-02-20T09:05:42;36.72;;;28.15;;
51459;SDS011;37534;39.772;2.718;2023-02-20T09:08:07;34.10;;;27.98;;
51459;SDS011;37534;39.772;2.718;2023-02-20T09:10:33;29.55;;;24.58;;
51459;SDS011;37534;39.772;2.718;2023-02-20T09:12:59;37.83;;;25.85;;
51459;SDS011;37534;39.772;2.718;2023-02-20T09:15:25;32.08;;;24.42;;
51459;SDS011;37534;39.772;2.718;2023-02-20T09:17:51;23.15;;;19.98;;
51459;SDS011;37534;39.772;2.718;2023-02-20T09:20:17;29.17;;;22.08;;
51459;SDS011;37534;39.772;2.718;2023-02-20T09:22:47;37.95;;;21.52;;
51459;SDS011;37534;39.772;2.718;2023-02-20T09:25:15;27.88;;;21.35;;
51459;SDS011;37534;39.772;2.718;2023-02-20T09:27:43;25.45;;;22.63;;
51459;SDS011;37534;39.772;2.718;2023-02-20T09:30:08;35.92;;;25.58;;
51459;SDS011;37534;39.772;2.718;2023-02-20T09:32:35;34.58;;;25.33;;
51459;SDS011;37534;39.772;2.718;2023-02-20T09:35:01;41.75;;;29.17;;
51459;SDS011;37534;39.772;2.718;2023-02-20T09:37:27;43.25;;;29.77;;
51459;SDS011;37534;39.772;2.718;2023-02-20T09:39:53;28.33;;;23.23;;
51459;SDS011;37534;39.772;2.718;2023-02-20T09:47:38;72.20;;;62.15;;
51459;SDS011;37534;39.772;2.718;2023-02-20T09:50:09;31.05;;;25.25;;
51459;SDS011;37534;39.772;2.718;2023-02-20T09:52:39;48.65;;;42.22;;
51459;SDS011;37534;39.772;2.718;2023-02-20T09:55:18;34.58;;;26.67;;
51459;SDS011;37534;39.772;2.718;2023-02-20T09:57:47;27.38;;;23.73;;
51459;SDS011;37534;39.772;2.718;2023-02-20T10:00:26;29.37;;;20.57;;
51459;SDS011;37534;39.772;2.718;2023-02-20T10:03:17;28.67;;;18.50;;
51459;SDS011;37534;39.772;2.718;2023-02-20T10:05:47;21.50;;;17.80;;
51459;SDS011;37534;39.772;2.718;2023-02-20T10:08:16;24.35;;;17.88;;
51459;SDS011;37534;39.772;2.718;2023-02-20T10:10:44;33.33;;;17.50;;
51459;SDS011;37534;39.772;2.718;2023-02-20T10:13:26;15.88;;;13.02;;
51459;SDS011;37534;39.772;2.718;2023-02-20T10:26:08;11.15;;;9.93;;
51459;SDS011;37534;39.772;2.718;2023-02-20T10:28:37;14.77;;;9.90;;
51459;SDS011;37534;39.772;2.718;2023-02-20T10:33:48;22.55;;;15.02;;
51459;SDS011;37534;39.772;2.718;2023-02-20T10:36:25;12.50;;;10.23;;
51459;SDS011;37534;39.772;2.718;2023-02-20T10:39:09;9.00;;;7.97;;
51459;SDS011;37534;39.772;2.718;2023-02-20T10:41:41;10.57;;;8.57;;
51459;SDS011;37534;39.772;2.718;2023-02-20T10:46:51;14.27;;;8.55;;
51459;SDS011;37534;39.772;2.718;2023-02-20T10:51:57;6.45;;;5.03;;
51459;SDS011;37534;39.772;2.718;2023-02-20T10:54:42;5.15;;;4.60;;
51459;SDS011;37534;39.772;2.718;2023-02-20T10:57:13;5.93;;;3.83;;
51459;SDS011;37534;39.772;2.718;2023-02-20T10:59:58;5.53;;;3.95;;
51459;SDS011;37534;39.772;2.718;2023-02-20T11:02:33;4.35;;;3.60;;
51459;SDS011;37534;39.772;2.718;2023-02-20T11:05:10;5.47;;;3.67;;
51459;SDS011;37534;39.772;2.718;2023-02-20T11:07:37;4.50;;;4.00;;
51459;SDS011;37534;39.772;2.718;2023-02-20T11:10:04;4.20;;;3.80;;
51459;SDS011;37534;39.772;2.718;2023-02-20T11:12:40;6.88;;;5.50;;
51459;SDS011;37534;39.772;2.718;2023-02-20T11:15:11;6.53;;;5.93;;
51459;SDS011;37534;39.772;2.718;2023-02-20T11:17:39;5.28;;;4.60;;
51459;SDS011;37534;39.772;2.718;2023-02-20T11:20:36;4.68;;;3.90;;
51459;SDS011;37534;39.772;2.718;2023-02-20T11:22:54;4.95;;;3.97;;
51459;SDS011;37534;39.772;2.718;2023-02-20T11:25:31;7.95;;;4.10;;
51459;SDS011;37534;39.772;2.718;2023-02-20T11:28:22;4.15;;;3.78;;
51459;SDS011;37534;39.772;2.718;2023-02-20T11:31:01;4.90;;;4.28;;
51459;SDS011;37534;39.772;2.718;2023-02-20T11:33:30;11.38;;;5.07;;
51459;SDS011;37534;39.772;2.718;2023-02-20T11:36:08;4.43;;;3.47;;
51459;SDS011;37534;39.772;2.718;2023-02-20T11:38:35;4.35;;;3.95;;
51459;SDS011;37534;39.772;2.718;2023-02-20T11:41:26;10.10;;;6.43;;
51459;SDS011;37534;39.772;2.718;2023-02-20T11:46:46;5.78;;;3.78;;
51459;SDS011;37534;39.772;2.718;2023-02-20T11:49:22;4.25;;;3.50;;
51459;SDS011;37534;39.772;2.718;2023-02-20T11:51:54;4.20;;;2.97;;
51459;SDS011;37534;39.772;2.718;2023-02-20T11:54:32;4.30;;;3.45;;
51459;SDS011;37534;39.772;2.718;2023-02-20T11:57:01;3.00;;;2.80;;
51459;SDS011;37534;39.772;2.718;2023-02-20T11:59:49;7.90;;;2.55;;
51459;SDS011;37534;39.772;2.718;2023-02-20T12:04:42;6.07;;;2.28;;
51459;SDS011;37534;39.772;2.718;2023-02-20T12:09:48;3.90;;;2.10;;
51459;SDS011;37534;39.772;2.718;2023-02-20T12:12:17;3.15;;;2.72;;
51459;SDS011;37534;39.772;2.718;2023-02-20T12:14:48;2.63;;;2.30;;
51459;SDS011;37534;39.772;2.718;2023-02-20T12:22:38;3.30;;;2.00;;
51459;SDS011;37534;39.772;2.718;2023-02-20T12:25:20;2.95;;;2.15;;
51459;SDS011;37534;39.772;2.718;2023-02-20T12:30:20;2.40;;;1.58;;
51459;SDS011;37534;39.772;2.718;2023-02-20T12:33:20;2.63;;;1.80;;
51459;SDS011;37534;39.772;2.718;2023-02-20T12:41:48;1.65;;;1.50;;
51459;SDS011;37534;39.772;2.718;2023-02-20T12:47:42;2.20;;;1.42;;
51459;SDS011;37534;39.772;2.718;2023-02-20T12:58:37;3.63;;;2.10;;
51459;SDS011;37534;39.772;2.718;2023-02-20T13:01:26;1.40;;;1.30;;
51459;SDS011;37534;39.772;2.718;2023-02-20T13:09:17;6.05;;;2.20;;
51459;SDS011;37534;39.772;2.718;2023-02-20T13:11:49;4.10;;;2.47;;
51459;SDS011;37534;39.772;2.718;2023-02-20T13:22:20;3.03;;;1.92;;
51459;SDS011;37534;39.772;2.718;2023-02-20T13:24:46;2.03;;;1.92;;
51459;SDS011;37534;39.772;2.718;2023-02-20T13:27:33;2.63;;;1.70;;
51459;SDS011;37534;39.772;2.718;2023-02-20T13:30:11;1.73;;;1.45;;
51459;SDS011;37534;39.772;2.718;2023-02-20T13:32:45;3.55;;;2.47;;
51459;SDS011;37534;39.772;2.718;2023-02-20T13:38:11;1.80;;;1.70;;
51459;SDS011;37534;39.772;2.718;2023-02-20T13:40:41;3.10;;;1.67;;
51459;SDS011;37534;39.772;2.718;2023-02-20T13:43:33;1.57;;;1.47;;
51459;SDS011;37534;39.772;2.718;2023-02-20T13:53:41;2.90;;;1.60;;
51459;SDS011;37534;39.772;2.718;2023-02-20T13:56:16;2.38;;;1.55;;
51459;SDS011;37534;39.772;2.718;2023-02-20T13:58:43;3.35;;;2.13;;
51459;SDS011;37534;39.772;2.718;2023-02-20T14:01:10;3.67;;;2.42;;
51459;SDS011;37534;39.772;2.718;2023-02-20T14:03:38;2.45;;;2.15;;
51459;SDS011;37534;39.772;2.718;2023-02-20T14:08:45;4.55;;;2.10;;
51459;SDS011;37534;39.772;2.718;2023-02-20T14:11:15;1.63;;;1.52;;
51459;SDS011;37534;39.772;2.718;2023-02-20T14:13:50;2.13;;;1.77;;
51459;SDS011;37534;39.772;2.718;2023-02-20T14:18:47;1.90;;;1.60;;
51459;SDS011;37534;39.772;2.718;2023-02-20T14:21:17;3.13;;;1.75;;
51459;SDS011;37534;39.772;2.718;2023-02-20T14:23:49;3.30;;;1.85;;
51459;SDS011;37534;39.772;2.718;2023-02-20T14:26:23;2.38;;;1.45;;
51459;SDS011;37534;39.772;2.718;2023-02-20T14:28:51;4.47;;;1.90;;
51459;SDS011;37534;39.772;2.718;2023-02-20T14:31:37;2.50;;;1.80;;
51459;SDS011;37534;39.772;2.718;2023-02-20T14:34:15;3.88;;;1.90;;
51459;SDS011;37534;39.772;2.718;2023-02-20T14:36:57;2.03;;;1.70;;
51459;SDS011;37534;39.772;2.718;2023-02-20T14:42:20;2.85;;;1.50;;
51459;SDS011;37534;39.772;2.718;2023-02-20T14:44:48;2.33;;;2.15;;
51459;SDS011;37534;39.772;2.718;2023-02-20T14:47:17;6.30;;;1.92;;
51459;SDS011;37534;39.772;2.718;2023-02-20T14:49:43;2.92;;;2.20;;
51459;SDS011;37534;39.772;2.718;2023-02-20T14:54:38;8.20;;;4.43;;
51459;SDS011;37534;39.772;2.718;2023-02-20T14:57:12;2.38;;;2.17;;
51459;SDS011;37534;39.772;2.718;2023-02-20T14:59:39;6.32;;;5.35;;
51459;SDS011;37534;39.772;2.718;2023-02-20T15:02:16;19.17;;;6.25;;
51459;SDS011;37534;39.772;2.718;2023-02-20T15:07:22;7.67;;;4.73;;
51459;SDS011;37534;39.772;2.718;2023-02-20T15:12:18;3.45;;;2.92;;
51459;SDS011;37534;39.772;2.718;2023-02-20T15:14:59;3.85;;;2.70;;
51459;SDS011;37534;39.772;2.718;2023-02-20T15:17:28;4.88;;;4.13;;
51459;SDS011;37534;39.772;2.718;2023-02-20T15:19:56;2.70;;;2.50;;
51459;SDS011;37534;39.772;2.718;2023-02-20T15:22:35;3.15;;;2.85;;
51459;SDS011;37534;39.772;2.718;2023-02-20T15:28:02;8.68;;;3.08;;
51459;SDS011;37534;39.772;2.718;2023-02-20T15:30:29;3.42;;;2.28;;
51459;SDS011;37534;39.772;2.718;2023-02-20T15:32:55;2.33;;;1.67;;
51459;SDS011;37534;39.772;2.718;2023-02-20T15:35:23;2.85;;;2.10;;
51459;SDS011;37534;39.772;2.718;2023-02-20T15:37:59;2.05;;;1.95;;
51459;SDS011;37534;39.772;2.718;2023-02-20T15:40:28;3.33;;;2.30;;
51459;SDS011;37534;39.772;2.718;2023-02-20T15:42:57;2.00;;;1.88;;
51459;SDS011;37534;39.772;2.718;2023-02-20T15:45:27;2.63;;;2.42;;
51459;SDS011;37534;39.772;2.718;2023-02-20T15:47:55;2.03;;;1.80;;
51459;SDS011;37534;39.772;2.718;2023-02-20T15:50:22;2.20;;;1.98;;
51459;SDS011;37534;39.772;2.718;2023-02-20T15:52:48;2.05;;;1.85;;
51459;SDS011;37534;39.772;2.718;2023-02-20T15:55:15;2.67;;;2.38;;
51459;SDS011;37534;39.772;2.718;2023-02-20T15:57:44;4.55;;;3.67;;
51459;SDS011;37534;39.772;2.718;2023-02-20T16:00:23;2.88;;;2.30;;
51459;SDS011;37534;39.772;2.718;2023-02-20T16:02:55;2.40;;;2.20;;
51459;SDS011;37534;39.772;2.718;2023-02-20T16:05:21;2.67;;;2.47;;
51459;SDS011;37534;39.772;2.718;2023-02-20T16:07:47;2.50;;;2.30;;
51459;SDS011;37534;39.772;2.718;2023-02-20T16:10:16;8.75;;;7.20;;
51459;SDS011;37534;39.772;2.718;2023-02-20T16:12:44;5.53;;;5.07;;
51459;SDS011;37534;39.772;2.718;2023-02-20T16:15:17;3.97;;;2.67;;
51459;SDS011;37534;39.772;2.718;2023-02-20T16:17:46;5.07;;;3.20;;
51459;SDS011;37534;39.772;2.718;2023-02-20T16:20:12;3.28;;;2.97;;
51459;SDS011;37534;39.772;2.718;2023-02-20T16:22:41;3.22;;;2.85;;
51459;SDS011;37534;39.772;2.718;2023-02-20T16:25:07;2.47;;;2.25;;
51459;SDS011;37534;39.772;2.718;2023-02-20T16:27:35;3.28;;;3.05;;
51459;SDS011;37534;39.772;2.718;2023-02-20T16:30:01;8.90;;;5.95;;
51459;SDS011;37534;39.772;2.718;2023-02-20T16:32:28;10.13;;;6.65;;
51459;SDS011;37534;39.772;2.718;2023-02-20T16:34:56;8.50;;;5.75;;
51459;SDS011;37534;39.772;2.718;2023-02-20T16:37:23;12.18;;;6.30;;
51459;SDS011;37534;39.772;2.718;2023-02-20T16:39:49;10.40;;;7.15;;
51459;SDS011;37534;39.772;2.718;2023-02-20T16:44:49;7.60;;;5.53;;
51459;SDS011;37534;39.772;2.718;2023-02-20T16:47:21;11.23;;;6.75;;
51459;SDS011;37534;39.772;2.718;2023-02-20T16:49:49;10.43;;;8.52;;
51459;SDS011;37534;39.772;2.718;2023-02-20T16:52:26;12.73;;;7.72;;
51459;SDS011;37534;39.772;2.718;2023-02-20T16:54:55;15.50;;;8.57;;
51459;SDS011;37534;39.772;2.718;2023-02-20T16:57:22;7.70;;;6.93;;